NDALE PKWA-PTSA
Flight info
| Callsign | NDALE |
|---|---|
| Flight time | 0h 54m |
| Altitude | 40000 |
| Route | STEFF A222 UKS |
| Aircraft | C750/M-SBDE3FGHRWXY/S |
Departure
| Time | 2026-04-22 20:40 |
|---|---|
| Airport | Bucholz Army Air Field (PKWA) |
Arrival
| Time | 2026-04-22 21:35 |
|---|---|
| Airport | Kosrae International Airport (PTSA) |
| Time | Latitude | Longitude | Altitude | Speed | Heading |
|---|---|---|---|---|---|
| 2026-04-22 20:35 | 8.71924 | 167.72151 | 5 ft | 0 kts | 251° |
| 2026-04-22 20:39 | 8.71921 | 167.72151 | 5 ft | 1 kts | 198° |
| 2026-04-22 20:39 | 8.71855 | 167.72184 | 5 ft | 21 kts | 111° |
| 2026-04-22 20:39 | 8.71774 | 167.72333 | 4 ft | 21 kts | 94° |
| 2026-04-22 20:39 | 8.71848 | 167.72618 | 4 ft | 88 kts | 72° |
| 2026-04-22 20:40 | 8.72111 | 167.73491 | 70 ft | 154 kts | 70° |
| 2026-04-22 20:40 | 8.72453 | 167.74664 | 268 ft | 196 kts | 75° |
| 2026-04-22 20:40 | 8.72264 | 167.76148 | 517 ft | 240 kts | 115° |
| 2026-04-22 20:40 | 8.71012 | 167.77388 | 1030 ft | 269 kts | 146° |
| 2026-04-22 20:41 | 8.69165 | 167.77987 | 1721 ft | 286 kts | 172° |
| 2026-04-22 20:41 | 8.67294 | 167.77672 | 3202 ft | 269 kts | 204° |
| 2026-04-22 20:41 | 8.65864 | 167.76457 | 4288 ft | 274 kts | 229° |
| 2026-04-22 20:41 | 8.64726 | 167.74927 | 5254 ft | 278 kts | 233° |
| 2026-04-22 20:42 | 8.63602 | 167.73314 | 6182 ft | 283 kts | 234° |
| 2026-04-22 20:42 | 8.62495 | 167.71642 | 7069 ft | 288 kts | 236° |
| 2026-04-22 20:42 | 8.61393 | 167.69933 | 8056 ft | 292 kts | 236° |
| 2026-04-22 20:42 | 8.60260 | 167.68209 | 9087 ft | 297 kts | 235° |
| 2026-04-22 20:43 | 8.59097 | 167.66458 | 10012 ft | 303 kts | 235° |
| 2026-04-22 20:43 | 8.57893 | 167.64638 | 10479 ft | 324 kts | 235° |
| 2026-04-22 20:43 | 8.56597 | 167.62673 | 10784 ft | 346 kts | 236° |
| 2026-04-22 20:43 | 8.55265 | 167.60651 | 11655 ft | 346 kts | 236° |
| 2026-04-22 20:44 | 8.53940 | 167.58646 | 12439 ft | 350 kts | 235° |
| 2026-04-22 20:44 | 8.52582 | 167.56591 | 13242 ft | 353 kts | 235° |
| 2026-04-22 20:44 | 8.51208 | 167.54512 | 13983 ft | 358 kts | 235° |
| 2026-04-22 20:44 | 8.49818 | 167.52409 | 14663 ft | 362 kts | 235° |
| 2026-04-22 20:45 | 8.48416 | 167.50287 | 15363 ft | 365 kts | 236° |
| 2026-04-22 20:45 | 8.46998 | 167.48142 | 16056 ft | 369 kts | 236° |
| 2026-04-22 20:45 | 8.45563 | 167.45973 | 16784 ft | 373 kts | 236° |
| 2026-04-22 20:45 | 8.44115 | 167.43782 | 17517 ft | 377 kts | 236° |
| 2026-04-22 20:46 | 8.41194 | 167.39367 | 18963 ft | 384 kts | 236° |
| 2026-04-22 20:46 | 8.39701 | 167.37110 | 19626 ft | 388 kts | 236° |
| 2026-04-22 20:46 | 8.38190 | 167.34827 | 20300 ft | 393 kts | 236° |
| 2026-04-22 20:47 | 8.36667 | 167.32526 | 21057 ft | 395 kts | 236° |
| 2026-04-22 20:47 | 8.35133 | 167.30209 | 21789 ft | 399 kts | 236° |
| 2026-04-22 20:47 | 8.33585 | 167.27871 | 22491 ft | 403 kts | 236° |
| 2026-04-22 20:47 | 8.32020 | 167.25507 | 23193 ft | 407 kts | 236° |
| 2026-04-22 20:48 | 8.30438 | 167.23118 | 23848 ft | 410 kts | 236° |
| 2026-04-22 20:48 | 8.28868 | 167.20748 | 24442 ft | 414 kts | 236° |
| 2026-04-22 20:48 | 8.27261 | 167.18322 | 25027 ft | 418 kts | 236° |
| 2026-04-22 20:48 | 8.25639 | 167.15875 | 25626 ft | 421 kts | 236° |
| 2026-04-22 20:49 | 8.24002 | 167.13404 | 26223 ft | 425 kts | 236° |
| 2026-04-22 20:49 | 8.22354 | 167.10918 | 26826 ft | 428 kts | 236° |
| 2026-04-22 20:49 | 8.20691 | 167.08411 | 27412 ft | 432 kts | 236° |
| 2026-04-22 20:49 | 8.19012 | 167.05878 | 27996 ft | 436 kts | 236° |
| 2026-04-22 20:50 | 8.17317 | 167.03322 | 28582 ft | 440 kts | 236° |
| 2026-04-22 20:50 | 8.15610 | 167.00749 | 29152 ft | 443 kts | 236° |
| 2026-04-22 20:50 | 8.13908 | 166.98184 | 29696 ft | 447 kts | 236° |
| 2026-04-22 20:50 | 8.12172 | 166.95568 | 30179 ft | 451 kts | 236° |
| 2026-04-22 20:51 | 8.10417 | 166.92924 | 30643 ft | 454 kts | 236° |
| 2026-04-22 20:51 | 8.08657 | 166.90273 | 31148 ft | 456 kts | 236° |
| 2026-04-22 20:51 | 8.06888 | 166.87608 | 31640 ft | 458 kts | 236° |
| 2026-04-22 20:51 | 8.05112 | 166.84934 | 32130 ft | 459 kts | 236° |
| 2026-04-22 20:52 | 8.03329 | 166.82249 | 32561 ft | 462 kts | 236° |
| 2026-04-22 20:52 | 8.01536 | 166.79550 | 33037 ft | 464 kts | 236° |
| 2026-04-22 20:52 | 7.99738 | 166.76844 | 33448 ft | 467 kts | 236° |
| 2026-04-22 20:52 | 7.97945 | 166.74145 | 33829 ft | 470 kts | 236° |
| 2026-04-22 20:53 | 7.96117 | 166.71396 | 34213 ft | 473 kts | 236° |
| 2026-04-22 20:53 | 7.94285 | 166.68640 | 34616 ft | 474 kts | 236° |
| 2026-04-22 20:53 | 7.92440 | 166.65866 | 34914 ft | 478 kts | 236° |
| 2026-04-22 20:53 | 7.90583 | 166.63073 | 35266 ft | 481 kts | 236° |
| 2026-04-22 20:54 | 7.88714 | 166.60265 | 35647 ft | 483 kts | 236° |
| 2026-04-22 20:54 | 7.86838 | 166.57444 | 35967 ft | 486 kts | 236° |
| 2026-04-22 20:54 | 7.84946 | 166.54601 | 36288 ft | 489 kts | 236° |
| 2026-04-22 20:54 | 7.83044 | 166.51744 | 36670 ft | 491 kts | 236° |
| 2026-04-22 20:55 | 7.81136 | 166.48878 | 36980 ft | 495 kts | 236° |
| 2026-04-22 20:55 | 7.79234 | 166.46019 | 37249 ft | 499 kts | 236° |
| 2026-04-22 20:55 | 7.77294 | 166.43108 | 37614 ft | 501 kts | 236° |
| 2026-04-22 20:55 | 7.75346 | 166.40184 | 37952 ft | 504 kts | 236° |
| 2026-04-22 20:56 | 7.73387 | 166.37242 | 38295 ft | 507 kts | 236° |
| 2026-04-22 20:56 | 7.71416 | 166.34284 | 38627 ft | 510 kts | 236° |
| 2026-04-22 20:56 | 7.69433 | 166.31309 | 38925 ft | 512 kts | 236° |
| 2026-04-22 20:56 | 7.67446 | 166.28328 | 39244 ft | 514 kts | 236° |
| 2026-04-22 20:57 | 7.65448 | 166.25332 | 39528 ft | 516 kts | 236° |
| 2026-04-22 20:57 | 7.63446 | 166.22330 | 39778 ft | 512 kts | 236° |
| 2026-04-22 20:57 | 7.61497 | 166.19408 | 39923 ft | 510 kts | 236° |
| 2026-04-22 20:57 | 7.59508 | 166.16426 | 39919 ft | 517 kts | 236° |
| 2026-04-22 20:58 | 7.55472 | 166.10380 | 39928 ft | 519 kts | 236° |
| 2026-04-22 20:58 | 7.51433 | 166.04329 | 39925 ft | 521 kts | 236° |
| 2026-04-22 20:59 | 7.47383 | 165.98266 | 39929 ft | 521 kts | 236° |
| 2026-04-22 20:59 | 7.43355 | 165.92236 | 39929 ft | 522 kts | 236° |
| 2026-04-22 21:00 | 7.39306 | 165.86177 | 39927 ft | 522 kts | 236° |
| 2026-04-22 21:00 | 7.35244 | 165.80102 | 39923 ft | 525 kts | 236° |
| 2026-04-22 21:01 | 7.31166 | 165.74006 | 39930 ft | 524 kts | 236° |
| 2026-04-22 21:01 | 7.27090 | 165.67915 | 39926 ft | 525 kts | 236° |
| 2026-04-22 21:02 | 7.23043 | 165.61870 | 39926 ft | 524 kts | 236° |
| 2026-04-22 21:02 | 7.18965 | 165.55780 | 39923 ft | 524 kts | 236° |
| 2026-04-22 21:03 | 7.14888 | 165.49694 | 39924 ft | 525 kts | 236° |
| 2026-04-22 21:03 | 7.10810 | 165.43609 | 39924 ft | 524 kts | 236° |
| 2026-04-22 21:04 | 7.06758 | 165.37564 | 39923 ft | 524 kts | 236° |
| 2026-04-22 21:04 | 7.02677 | 165.31479 | 39921 ft | 524 kts | 236° |
| 2026-04-22 21:05 | 6.98594 | 165.25400 | 39926 ft | 525 kts | 236° |
| 2026-04-22 21:05 | 6.94350 | 165.19409 | 39920 ft | 526 kts | 234° |
| 2026-04-22 21:06 | 6.90122 | 165.13398 | 39921 ft | 526 kts | 234° |
| 2026-04-22 21:06 | 6.85896 | 165.07442 | 39927 ft | 526 kts | 234° |
| 2026-04-22 21:07 | 6.81656 | 165.01430 | 39926 ft | 527 kts | 234° |
| 2026-04-22 21:07 | 6.77404 | 164.95429 | 39926 ft | 527 kts | 234° |
| 2026-04-22 21:08 | 6.73154 | 164.89419 | 39926 ft | 527 kts | 234° |
| 2026-04-22 21:08 | 6.68903 | 164.83417 | 39926 ft | 527 kts | 234° |
| 2026-04-22 21:09 | 6.64680 | 164.77453 | 39926 ft | 527 kts | 234° |
| 2026-04-22 21:09 | 6.62558 | 164.74457 | 39812 ft | 527 kts | 234° |
| 2026-04-22 21:09 | 6.60429 | 164.71453 | 39570 ft | 526 kts | 234° |
| 2026-04-22 21:10 | 6.58309 | 164.68460 | 39326 ft | 527 kts | 234° |
| 2026-04-22 21:10 | 6.56184 | 164.65462 | 39091 ft | 525 kts | 234° |
| 2026-04-22 21:10 | 6.54065 | 164.62475 | 38863 ft | 524 kts | 234° |
| 2026-04-22 21:10 | 6.51953 | 164.59495 | 38635 ft | 522 kts | 234° |
| 2026-04-22 21:11 | 6.49851 | 164.56529 | 38374 ft | 520 kts | 234° |
| 2026-04-22 21:11 | 6.47781 | 164.53611 | 38108 ft | 518 kts | 234° |
| 2026-04-22 21:11 | 6.45697 | 164.50675 | 37843 ft | 514 kts | 234° |
| 2026-04-22 21:11 | 6.43624 | 164.47752 | 37580 ft | 513 kts | 234° |
| 2026-04-22 21:12 | 6.42255 | 164.45822 | 37394 ft | 512 kts | 234° |
| 2026-04-22 21:12 | 6.39498 | 164.41938 | 37062 ft | 508 kts | 234° |
| 2026-04-22 21:12 | 6.37452 | 164.39054 | 36810 ft | 506 kts | 234° |
| 2026-04-22 21:12 | 6.35413 | 164.36182 | 36560 ft | 504 kts | 234° |
| 2026-04-22 21:13 | 6.33383 | 164.33323 | 36319 ft | 501 kts | 234° |
| 2026-04-22 21:13 | 6.31406 | 164.30539 | 35635 ft | 490 kts | 234° |
| 2026-04-22 21:13 | 6.29427 | 164.27752 | 34311 ft | 489 kts | 233° |
| 2026-04-22 21:13 | 6.27467 | 164.24993 | 33223 ft | 480 kts | 233° |
| 2026-04-22 21:14 | 6.25543 | 164.22285 | 32100 ft | 471 kts | 233° |
| 2026-04-22 21:14 | 6.23654 | 164.19627 | 30993 ft | 464 kts | 234° |
| 2026-04-22 21:14 | 6.21781 | 164.16992 | 30196 ft | 462 kts | 234° |
| 2026-04-22 21:14 | 6.19937 | 164.14398 | 29747 ft | 448 kts | 234° |
| 2026-04-22 21:15 | 6.18138 | 164.11865 | 28314 ft | 447 kts | 234° |
| 2026-04-22 21:15 | 6.16337 | 164.09332 | 27181 ft | 442 kts | 234° |
| 2026-04-22 21:15 | 6.14593 | 164.06880 | 26142 ft | 434 kts | 234° |
| 2026-04-22 21:15 | 6.12848 | 164.04425 | 25081 ft | 429 kts | 233° |
| 2026-04-22 21:16 | 6.11125 | 164.02003 | 24123 ft | 423 kts | 233° |
| 2026-04-22 21:16 | 6.09428 | 163.99618 | 23115 ft | 417 kts | 233° |
| 2026-04-22 21:16 | 6.07756 | 163.97266 | 22057 ft | 410 kts | 233° |
| 2026-04-22 21:16 | 6.06111 | 163.94955 | 20981 ft | 404 kts | 233° |
| 2026-04-22 21:17 | 6.04429 | 163.92593 | 20120 ft | 434 kts | 234° |
| 2026-04-22 21:17 | 6.02613 | 163.90043 | 19940 ft | 460 kts | 234° |
| 2026-04-22 21:17 | 6.00748 | 163.87420 | 19939 ft | 472 kts | 234° |
| 2026-04-22 21:17 | 5.98832 | 163.84727 | 19935 ft | 476 kts | 234° |
| 2026-04-22 21:18 | 5.96899 | 163.82014 | 19940 ft | 479 kts | 234° |
| 2026-04-22 21:18 | 5.94958 | 163.79287 | 19940 ft | 481 kts | 234° |
| 2026-04-22 21:18 | 5.93014 | 163.76557 | 19932 ft | 481 kts | 234° |
| 2026-04-22 21:18 | 5.91066 | 163.73822 | 19932 ft | 482 kts | 234° |
| 2026-04-22 21:19 | 5.89114 | 163.71082 | 19932 ft | 484 kts | 234° |
| 2026-04-22 21:19 | 5.87162 | 163.68342 | 19931 ft | 482 kts | 234° |
| 2026-04-22 21:19 | 5.85239 | 163.65643 | 19930 ft | 482 kts | 234° |
| 2026-04-22 21:19 | 5.83285 | 163.62902 | 19931 ft | 483 kts | 234° |
| 2026-04-22 21:20 | 5.81331 | 163.60160 | 19931 ft | 483 kts | 234° |
| 2026-04-22 21:20 | 5.79382 | 163.57426 | 19930 ft | 482 kts | 234° |
| 2026-04-22 21:20 | 5.77426 | 163.54683 | 19930 ft | 484 kts | 234° |
| 2026-04-22 21:20 | 5.75474 | 163.51944 | 19930 ft | 482 kts | 234° |
| 2026-04-22 21:21 | 5.73523 | 163.49209 | 19930 ft | 483 kts | 234° |
| 2026-04-22 21:21 | 5.71566 | 163.46464 | 19931 ft | 484 kts | 234° |
| 2026-04-22 21:21 | 5.69609 | 163.43722 | 19935 ft | 483 kts | 234° |
| 2026-04-22 21:21 | 5.67684 | 163.41022 | 19931 ft | 483 kts | 234° |
| 2026-04-22 21:22 | 5.65730 | 163.38284 | 19931 ft | 484 kts | 234° |
| 2026-04-22 21:22 | 5.63772 | 163.35540 | 19895 ft | 484 kts | 234° |
| 2026-04-22 21:22 | 5.61816 | 163.32801 | 19433 ft | 481 kts | 234° |
| 2026-04-22 21:22 | 5.59875 | 163.30081 | 18981 ft | 478 kts | 234° |
| 2026-04-22 21:23 | 5.57950 | 163.27384 | 18529 ft | 473 kts | 234° |
| 2026-04-22 21:23 | 5.56039 | 163.24707 | 18065 ft | 471 kts | 234° |
| 2026-04-22 21:23 | 5.54142 | 163.22051 | 17550 ft | 467 kts | 234° |
| 2026-04-22 21:23 | 5.52912 | 163.20328 | 16819 ft | 449 kts | 234° |
| 2026-04-22 21:24 | 5.51110 | 163.17806 | 14726 ft | 445 kts | 234° |
| 2026-04-22 21:24 | 5.49026 | 163.14314 | 12402 ft | 437 kts | 243° |
| 2026-04-22 21:24 | 5.47773 | 163.11601 | 11389 ft | 422 kts | 246° |
| 2026-04-22 21:24 | 5.46612 | 163.08911 | 10417 ft | 417 kts | 248° |
| 2026-04-22 21:25 | 5.45572 | 163.06204 | 9401 ft | 412 kts | 250° |
| 2026-04-22 21:25 | 5.44935 | 163.04441 | 8295 ft | 402 kts | 250° |
| 2026-04-22 21:25 | 5.44007 | 163.01810 | 6553 ft | 397 kts | 251° |
| 2026-04-22 21:25 | 5.43092 | 162.99237 | 4918 ft | 388 kts | 249° |
| 2026-04-22 21:26 | 5.41968 | 162.96829 | 3830 ft | 369 kts | 243° |
| 2026-04-22 21:26 | 5.40787 | 162.94654 | 3336 ft | 338 kts | 241° |
| 2026-04-22 21:26 | 5.39700 | 162.92722 | 3317 ft | 299 kts | 241° |
| 2026-04-22 21:26 | 5.38726 | 162.90989 | 3315 ft | 276 kts | 241° |
| 2026-04-22 21:27 | 5.37854 | 162.89259 | 3313 ft | 277 kts | 247° |
| 2026-04-22 21:27 | 5.37117 | 162.87463 | 3315 ft | 279 kts | 249° |
| 2026-04-22 21:27 | 5.36398 | 162.85659 | 3318 ft | 279 kts | 249° |
| 2026-04-22 21:27 | 5.35690 | 162.83873 | 3325 ft | 280 kts | 249° |
| 2026-04-22 21:28 | 5.34970 | 162.82058 | 3330 ft | 280 kts | 249° |
| 2026-04-22 21:28 | 5.34249 | 162.80252 | 3332 ft | 271 kts | 249° |
| 2026-04-22 21:28 | 5.33529 | 162.78584 | 3292 ft | 259 kts | 242° |
| 2026-04-22 21:28 | 5.32540 | 162.77214 | 3306 ft | 226 kts | 231° |
| 2026-04-22 21:29 | 5.31574 | 162.76088 | 3283 ft | 206 kts | 222° |
| 2026-04-22 21:29 | 5.30257 | 162.75628 | 3097 ft | 202 kts | 174° |
| 2026-04-22 21:29 | 5.28979 | 162.76079 | 3166 ft | 196 kts | 152° |
| 2026-04-22 21:29 | 5.27706 | 162.76752 | 3301 ft | 220 kts | 141° |
| 2026-04-22 21:30 | 5.26943 | 162.78013 | 3291 ft | 216 kts | 98° |
| 2026-04-22 21:30 | 5.27234 | 162.79403 | 3315 ft | 193 kts | 61° |
| 2026-04-22 21:30 | 5.27884 | 162.80452 | 3333 ft | 163 kts | 57° |
| 2026-04-22 21:30 | 5.28430 | 162.81344 | 3299 ft | 137 kts | 60° |
| 2026-04-22 21:31 | 5.28752 | 162.82226 | 3109 ft | 134 kts | 73° |
| 2026-04-22 21:31 | 5.28981 | 162.83134 | 2880 ft | 133 kts | 73° |
| 2026-04-22 21:31 | 5.29220 | 162.84030 | 2712 ft | 131 kts | 73° |
| 2026-04-22 21:31 | 5.29471 | 162.84917 | 2574 ft | 133 kts | 72° |
| 2026-04-22 21:32 | 5.29781 | 162.85816 | 2420 ft | 149 kts | 69° |
| 2026-04-22 21:32 | 5.30182 | 162.86838 | 2348 ft | 171 kts | 66° |
| 2026-04-22 21:32 | 5.30683 | 162.87935 | 2213 ft | 173 kts | 63° |
| 2026-04-22 21:32 | 5.31220 | 162.89023 | 1978 ft | 173 kts | 63° |
| 2026-04-22 21:33 | 5.31814 | 162.90093 | 1579 ft | 176 kts | 57° |
| 2026-04-22 21:33 | 5.32502 | 162.91084 | 1211 ft | 165 kts | 55° |
| 2026-04-22 21:33 | 5.33080 | 162.91966 | 920 ft | 143 kts | 56° |
| 2026-04-22 21:33 | 5.33613 | 162.92766 | 637 ft | 134 kts | 55° |
| 2026-04-22 21:34 | 5.34119 | 162.93517 | 443 ft | 126 kts | 55° |
| 2026-04-22 21:34 | 5.34615 | 162.94249 | 241 ft | 128 kts | 55° |
| 2026-04-22 21:34 | 5.35109 | 162.94980 | 95 ft | 129 kts | 55° |
| 2026-04-22 21:34 | 5.35596 | 162.95690 | 10 ft | 113 kts | 56° |
| 2026-04-22 21:35 | 5.35917 | 162.96171 | 16 ft | 32 kts | 58° |
| 2026-04-22 21:35 | 5.35975 | 162.96233 | 15 ft | 7 kts | 261° |
| 2026-04-22 21:35 | 5.35888 | 162.96117 | 15 ft | 38 kts | 233° |
| 2026-04-22 21:35 | 5.35671 | 162.95810 | 11 ft | 59 kts | 234° |
| 2026-04-22 21:36 | 5.35509 | 162.95572 | 13 ft | 20 kts | 232° |
| 2026-04-22 21:36 | 5.35407 | 162.95553 | 12 ft | 16 kts | 159° |
| 2026-04-22 21:36 | 5.35354 | 162.95537 | 12 ft | 0 kts | 237° |